sensor_id;sensor_type;location;lat;lon;timestamp;pressure;altitude;pressure_sealevel;temperature;humidity
80333;BME280;69652;51.864;-2.246;2023-11-19T00:00:22;100564.53;;;12.43;84.11
80333;BME280;69652;51.864;-2.246;2023-11-19T00:02:48;100563.41;;;12.35;84.23
80333;BME280;69652;51.864;-2.246;2023-11-19T00:05:14;100567.88;;;12.31;84.70
80333;BME280;69652;51.864;-2.246;2023-11-19T00:07:40;100569.16;;;12.34;83.32
80333;BME280;69652;51.864;-2.246;2023-11-19T00:10:09;100558.75;;;12.27;82.91
80333;BME280;69652;51.864;-2.246;2023-11-19T00:12:41;100550.75;;;12.30;83.39
80333;BME280;69652;51.864;-2.246;2023-11-19T00:15:08;100554.09;;;12.27;84.14
80333;BME280;69652;51.864;-2.246;2023-11-19T00:17:44;100552.97;;;12.28;83.41
80333;BME280;69652;51.864;-2.246;2023-11-19T00:20:14;100556.34;;;12.25;84.07
80333;BME280;69652;51.864;-2.246;2023-11-19T00:22:40;100580.38;;;12.32;83.53
80333;BME280;69652;51.864;-2.246;2023-11-19T00:25:07;100578.75;;;12.40;83.57
80333;BME280;69652;51.864;-2.246;2023-11-19T00:27:33;100573.50;;;12.43;83.80
80333;BME280;69652;51.864;-2.246;2023-11-19T00:29:58;100569.16;;;12.42;82.88
80333;BME280;69652;51.864;-2.246;2023-11-19T00:32:24;100558.59;;;12.41;83.11
80333;BME280;69652;51.864;-2.246;2023-11-19T00:34:49;100555.25;;;12.44;82.59
80333;BME280;69652;51.864;-2.246;2023-11-19T00:37:15;100560.69;;;12.35;83.01
80333;BME280;69652;51.864;-2.246;2023-11-19T00:39:41;100549.00;;;12.35;82.27
80333;BME280;69652;51.864;-2.246;2023-11-19T00:42:07;100542.91;;;12.38;82.52
80333;BME280;69652;51.864;-2.246;2023-11-19T00:44:33;100538.75;;;12.40;82.40
80333;BME280;69652;51.864;-2.246;2023-11-19T00:46:58;100538.91;;;12.35;82.00
80333;BME280;69652;51.864;-2.246;2023-11-19T00:49:25;100545.28;;;12.39;82.89
80333;BME280;69652;51.864;-2.246;2023-11-19T00:51:50;100531.56;;;12.36;83.05
80333;BME280;69652;51.864;-2.246;2023-11-19T00:54:16;100546.09;;;12.31;82.85
80333;BME280;69652;51.864;-2.246;2023-11-19T00:56:41;100555.41;;;12.39;81.95
80333;BME280;69652;51.864;-2.246;2023-11-19T00:59:06;100549.97;;;12.39;82.27
80333;BME280;69652;51.864;-2.246;2023-11-19T01:01:32;100542.91;;;12.38;81.87
80333;BME280;69652;51.864;-2.246;2023-11-19T01:03:58;100530.25;;;12.33;82.00
80333;BME280;69652;51.864;-2.246;2023-11-19T01:06:31;100534.91;;;12.33;82.46
80333;BME280;69652;51.864;-2.246;2023-11-19T01:08:56;100531.56;;;12.36;82.34
80333;BME280;69652;51.864;-2.246;2023-11-19T01:11:23;100547.06;;;12.35;81.90
80333;BME280;69652;51.864;-2.246;2023-11-19T01:13:49;100538.91;;;12.35;81.36
80333;BME280;69652;51.864;-2.246;2023-11-19T01:16:15;100543.25;;;12.36;81.39
80333;BME280;69652;51.864;-2.246;2023-11-19T01:18:40;100525.00;;;12.37;81.68
80333;BME280;69652;51.864;-2.246;2023-11-19T01:21:06;100536.19;;;12.44;81.73
80333;BME280;69652;51.864;-2.246;2023-11-19T01:23:31;100536.34;;;12.47;82.00
80333;BME280;69652;51.864;-2.246;2023-11-19T01:25:58;100533.31;;;12.49;81.46
80333;BME280;69652;51.864;-2.246;2023-11-19T01:28:23;100536.97;;;12.53;80.36
80333;BME280;69652;51.864;-2.246;2023-11-19T01:30:52;100531.72;;;12.48;80.36
80333;BME280;69652;51.864;-2.246;2023-11-19T01:33:17;100536.84;;;12.49;79.72
80333;BME280;69652;51.864;-2.246;2023-11-19T01:35:43;100534.91;;;12.50;80.63
80333;BME280;69652;51.864;-2.246;2023-11-19T01:38:08;100529.13;;;12.51;80.42
80333;BME280;69652;51.864;-2.246;2023-11-19T01:40:35;100530.28;;;12.50;80.83
80333;BME280;69652;51.864;-2.246;2023-11-19T01:43:02;100521.31;;;12.50;80.87
80333;BME280;69652;51.864;-2.246;2023-11-19T01:45:29;100509.63;;;12.49;80.27
80333;BME280;69652;51.864;-2.246;2023-11-19T01:48:00;100494.41;;;12.48;81.07
80333;BME280;69652;51.864;-2.246;2023-11-19T01:50:28;100503.19;;;12.54;79.94
80333;BME280;69652;51.864;-2.246;2023-11-19T01:52:55;100489.09;;;12.43;80.62
80333;BME280;69652;51.864;-2.246;2023-11-19T01:55:25;100476.94;;;12.41;81.50
80333;BME280;69652;51.864;-2.246;2023-11-19T01:57:54;100481.56;;;12.40;80.70
80333;BME280;69652;51.864;-2.246;2023-11-19T02:00:24;100464.78;;;12.38;80.37
80333;BME280;69652;51.864;-2.246;2023-11-19T02:02:50;100483.69;;;12.35;79.66
80333;BME280;69652;51.864;-2.246;2023-11-19T02:05:17;100468.31;;;12.30;81.03
80333;BME280;69652;51.864;-2.246;2023-11-19T02:07:43;100509.28;;;12.25;80.43
80333;BME280;69652;51.864;-2.246;2023-11-19T02:10:09;100472.13;;;12.29;80.70
80333;BME280;69652;51.864;-2.246;2023-11-19T02:12:40;100468.16;;;12.35;80.96
80333;BME280;69652;51.864;-2.246;2023-11-19T02:15:08;100473.75;;;12.39;80.58
80333;BME280;69652;51.864;-2.246;2023-11-19T02:17:34;100493.59;;;12.39;80.90
80333;BME280;69652;51.864;-2.246;2023-11-19T02:20:00;100481.25;;;12.42;80.14
80333;BME280;69652;51.864;-2.246;2023-11-19T02:22:26;100492.31;;;12.37;80.92
80333;BME280;69652;51.864;-2.246;2023-11-19T02:24:55;100469.09;;;12.39;81.01
80333;BME280;69652;51.864;-2.246;2023-11-19T02:27:53;100498.06;;;12.44;80.16
80333;BME280;69652;51.864;-2.246;2023-11-19T02:30:23;100517.13;;;12.35;81.34
80333;BME280;69652;51.864;-2.246;2023-11-19T02:32:55;100514.59;;;12.39;81.46
80333;BME280;69652;51.864;-2.246;2023-11-19T02:35:23;100505.75;;;12.42;81.16
80333;BME280;69652;51.864;-2.246;2023-11-19T02:37:49;100516.50;;;12.47;81.85
80333;BME280;69652;51.864;-2.246;2023-11-19T02:40:14;100518.75;;;12.45;81.03
80333;BME280;69652;51.864;-2.246;2023-11-19T02:42:40;100500.81;;;12.44;82.56
80333;BME280;69652;51.864;-2.246;2023-11-19T02:45:06;100496.19;;;12.27;84.15
80333;BME280;69652;51.864;-2.246;2023-11-19T02:47:33;100479.38;;;12.25;84.35
80333;BME280;69652;51.864;-2.246;2023-11-19T02:49:59;100483.53;;;12.14;85.55
80333;BME280;69652;51.864;-2.246;2023-11-19T02:52:25;100491.38;;;12.15;85.50
80333;BME280;69652;51.864;-2.246;2023-11-19T02:54:51;100490.72;;;12.18;84.95
80333;BME280;69652;51.864;-2.246;2023-11-19T02:57:16;100494.22;;;12.10;85.48
80333;BME280;69652;51.864;-2.246;2023-11-19T02:59:44;100486.56;;;12.12;85.47
80333;BME280;69652;51.864;-2.246;2023-11-19T03:02:10;100488.63;;;12.07;85.19
80333;BME280;69652;51.864;-2.246;2023-11-19T03:04:41;100482.06;;;12.08;85.80
80333;BME280;69652;51.864;-2.246;2023-11-19T03:07:08;100478.84;;;12.06;86.63
80333;BME280;69652;51.864;-2.246;2023-11-19T03:09:34;100474.03;;;11.94;87.05
80333;BME280;69652;51.864;-2.246;2023-11-19T03:12:01;100492.59;;;11.92;87.50
80333;BME280;69652;51.864;-2.246;2023-11-19T03:14:26;100510.69;;;11.88;87.25
80333;BME280;69652;51.864;-2.246;2023-11-19T03:16:53;100500.28;;;11.90;87.55
80333;BME280;69652;51.864;-2.246;2023-11-19T03:19:18;100497.56;;;11.90;87.87
80333;BME280;69652;51.864;-2.246;2023-11-19T03:21:43;100490.03;;;11.87;86.67
80333;BME280;69652;51.864;-2.246;2023-11-19T03:24:10;100498.69;;;11.89;86.76
80333;BME280;69652;51.864;-2.246;2023-11-19T03:26:35;100488.44;;;11.86;86.17
80333;BME280;69652;51.864;-2.246;2023-11-19T03:29:02;100486.31;;;11.74;87.52
80333;BME280;69652;51.864;-2.246;2023-11-19T03:31:28;100493.06;;;11.77;86.84
80333;BME280;69652;51.864;-2.246;2023-11-19T03:33:54;100498.13;;;11.70;86.29
80333;BME280;69652;51.864;-2.246;2023-11-19T03:36:19;100479.25;;;11.65;85.70
80333;BME280;69652;51.864;-2.246;2023-11-19T03:38:45;100483.41;;;11.62;85.58
80333;BME280;69652;51.864;-2.246;2023-11-19T03:41:14;100495.88;;;11.63;84.80
80333;BME280;69652;51.864;-2.246;2023-11-19T03:43:40;100490.88;;;11.56;83.84
80333;BME280;69652;51.864;-2.246;2023-11-19T03:46:19;100477.44;;;11.51;84.28
80333;BME280;69652;51.864;-2.246;2023-11-19T03:48:46;100483.50;;;11.48;84.55
80333;BME280;69652;51.864;-2.246;2023-11-19T03:51:12;100476.31;;;11.44;83.94
80333;BME280;69652;51.864;-2.246;2023-11-19T03:53:44;100489.72;;;11.40;84.62
80333;BME280;69652;51.864;-2.246;2023-11-19T03:56:11;100488.25;;;11.34;84.31
80333;BME280;69652;51.864;-2.246;2023-11-19T03:58:37;100480.44;;;11.33;84.70
80333;BME280;69652;51.864;-2.246;2023-11-19T04:01:06;100487.28;;;11.30;84.75
80333;BME280;69652;51.864;-2.246;2023-11-19T04:03:36;100481.84;;;11.30;84.91
80333;BME280;69652;51.864;-2.246;2023-11-19T04:06:01;100475.94;;;11.37;83.98
80333;BME280;69652;51.864;-2.246;2023-11-19T04:08:27;100468.78;;;11.41;83.67
80333;BME280;69652;51.864;-2.246;2023-11-19T04:10:52;100476.31;;;11.44;84.16
80333;BME280;69652;51.864;-2.246;2023-11-19T04:13:18;100484.66;;;11.56;83.31
80333;BME280;69652;51.864;-2.246;2023-11-19T04:15:45;100491.53;;;11.62;83.55
80333;BME280;69652;51.864;-2.246;2023-11-19T04:18:10;100491.41;;;11.67;84.25
80333;BME280;69652;51.864;-2.246;2023-11-19T04:20:36;100473.63;;;11.61;85.46
80333;BME280;69652;51.864;-2.246;2023-11-19T04:23:01;100486.25;;;11.57;86.16
80333;BME280;69652;51.864;-2.246;2023-11-19T04:25:27;100482.56;;;11.53;86.90
80333;BME280;69652;51.864;-2.246;2023-11-19T04:27:52;100485.28;;;11.44;86.92
80333;BME280;69652;51.864;-2.246;2023-11-19T04:30:18;100494.03;;;11.41;87.29
80333;BME280;69652;51.864;-2.246;2023-11-19T04:32:44;100487.81;;;11.49;86.65
80333;BME280;69652;51.864;-2.246;2023-11-19T04:35:09;100480.97;;;11.52;87.08
80333;BME280;69652;51.864;-2.246;2023-11-19T04:37:36;100481.28;;;11.50;86.77
80333;BME280;69652;51.864;-2.246;2023-11-19T04:40:02;100468.03;;;11.57;86.63
80333;BME280;69652;51.864;-2.246;2023-11-19T04:42:28;100486.25;;;11.57;86.70
80333;BME280;69652;51.864;-2.246;2023-11-19T04:44:54;100479.38;;;11.59;86.22
80333;BME280;69652;51.864;-2.246;2023-11-19T04:47:20;100489.13;;;11.61;86.35
80333;BME280;69652;51.864;-2.246;2023-11-19T04:49:45;100496.19;;;11.62;86.66
80333;BME280;69652;51.864;-2.246;2023-11-19T04:52:11;100492.03;;;11.64;86.54
80333;BME280;69652;51.864;-2.246;2023-11-19T04:54:42;100495.75;;;11.68;86.24
80333;BME280;69652;51.864;-2.246;2023-11-19T04:57:11;100477.47;;;11.69;87.31
80333;BME280;69652;51.864;-2.246;2023-11-19T04:59:36;100475.56;;;11.69;87.18
80333;BME280;69652;51.864;-2.246;2023-11-19T05:02:02;100480.84;;;11.66;87.09
80333;BME280;69652;51.864;-2.246;2023-11-19T05:04:29;100473.19;;;11.68;86.54
80333;BME280;69652;51.864;-2.246;2023-11-19T05:06:54;100477.03;;;11.67;86.33
80333;BME280;69652;51.864;-2.246;2023-11-19T05:09:20;100484.38;;;11.66;86.41
80333;BME280;69652;51.864;-2.246;2023-11-19T05:11:45;100488.34;;;11.69;85.73
80333;BME280;69652;51.864;-2.246;2023-11-19T05:14:11;100486.13;;;11.71;84.71
80333;BME280;69652;51.864;-2.246;2023-11-19T05:16:39;100487.09;;;11.66;85.02
80333;BME280;69652;51.864;-2.246;2023-11-19T05:19:05;100487.91;;;11.67;nan
80333;BME280;69652;51.864;-2.246;2023-11-19T05:21:30;100482.78;;;11.65;85.15
80333;BME280;69652;51.864;-2.246;2023-11-19T05:23:56;100485.97;;;11.67;84.70
80333;BME280;69652;51.864;-2.246;2023-11-19T05:26:23;100489.34;;;11.73;84.49
80333;BME280;69652;51.864;-2.246;2023-11-19T05:28:49;100482.50;;;11.75;83.83
80333;BME280;69652;51.864;-2.246;2023-11-19T05:31:16;100476.84;;;11.72;84.46
80333;BME280;69652;51.864;-2.246;2023-11-19T05:33:41;100477.97;;;11.71;85.28
80333;BME280;69652;51.864;-2.246;2023-11-19T05:36:07;100468.69;;;11.63;86.27
80333;BME280;69652;51.864;-2.246;2023-11-19T05:38:36;100478.94;;;11.66;86.05
80333;BME280;69652;51.864;-2.246;2023-11-19T05:41:02;100466.59;;;11.69;85.51
80333;BME280;69652;51.864;-2.246;2023-11-19T05:43:27;100467.41;;;11.69;85.88
80333;BME280;69652;51.864;-2.246;2023-11-19T05:45:53;100453.19;;;11.72;86.48
80333;BME280;69652;51.864;-2.246;2023-11-19T05:48:18;100454.38;;;11.80;85.39
80333;BME280;69652;51.864;-2.246;2023-11-19T05:50:44;100448.44;;;11.78;85.74
80333;BME280;69652;51.864;-2.246;2023-11-19T05:53:09;100450.03;;;11.79;85.52
80333;BME280;69652;51.864;-2.246;2023-11-19T05:55:39;100437.06;;;11.76;86.41
80333;BME280;69652;51.864;-2.246;2023-11-19T05:58:26;100445.72;;;11.78;86.91
80333;BME280;69652;51.864;-2.246;2023-11-19T06:00:55;100436.09;;;11.80;87.37
80333;BME280;69652;51.864;-2.246;2023-11-19T06:03:21;100445.66;;;11.69;87.88
80333;BME280;69652;51.864;-2.246;2023-11-19T06:05:47;100441.31;;;11.59;88.73
80333;BME280;69652;51.864;-2.246;2023-11-19T06:08:13;100429.50;;;11.55;88.73
80333;BME280;69652;51.864;-2.246;2023-11-19T06:10:40;100429.34;;;11.61;88.15
80333;BME280;69652;51.864;-2.246;2023-11-19T06:13:06;100431.75;;;11.62;88.21
80333;BME280;69652;51.864;-2.246;2023-11-19T06:15:33;100453.00;;;11.60;87.03
80333;BME280;69652;51.864;-2.246;2023-11-19T06:17:58;100454.28;;;11.63;86.81
80333;BME280;69652;51.864;-2.246;2023-11-19T06:20:29;100459.41;;;11.64;86.77
80333;BME280;69652;51.864;-2.246;2023-11-19T06:22:55;100467.41;;;11.61;86.63
80333;BME280;69652;51.864;-2.246;2023-11-19T06:25:22;100459.59;;;11.68;84.91
80333;BME280;69652;51.864;-2.246;2023-11-19T06:27:49;100453.97;;;11.64;84.83
80333;BME280;69652;51.864;-2.246;2023-11-19T06:30:15;100445.81;;;11.64;84.95
80333;BME280;69652;51.864;-2.246;2023-11-19T06:32:40;100445.84;;;11.73;83.07
80333;BME280;69652;51.864;-2.246;2023-11-19T06:35:06;100457.09;;;11.80;83.54
80333;BME280;69652;51.864;-2.246;2023-11-19T06:37:31;100454.81;;;11.82;82.00
80333;BME280;69652;51.864;-2.246;2023-11-19T06:39:57;100446.53;;;11.87;81.33
80333;BME280;69652;51.864;-2.246;2023-11-19T06:42:22;100450.38;;;11.86;81.86
80333;BME280;69652;51.864;-2.246;2023-11-19T06:44:48;100446.22;;;11.88;80.84
80333;BME280;69652;51.864;-2.246;2023-11-19T06:47:13;100447.81;;;11.89;80.61
80333;BME280;69652;51.864;-2.246;2023-11-19T06:49:38;100436.94;;;11.89;79.63
80333;BME280;69652;51.864;-2.246;2023-11-19T06:52:04;100435.47;;;11.92;79.12
80333;BME280;69652;51.864;-2.246;2023-11-19T06:54:30;100442.38;;;11.89;79.50
80333;BME280;69652;51.864;-2.246;2023-11-19T06:56:56;100438.19;;;11.92;79.47
80333;BME280;69652;51.864;-2.246;2023-11-19T06:59:23;100447.50;;;11.91;80.03
80333;BME280;69652;51.864;-2.246;2023-11-19T07:01:48;100443.63;;;11.92;80.52
80333;BME280;69652;51.864;-2.246;2023-11-19T07:04:14;100437.25;;;11.88;81.31
80333;BME280;69652;51.864;-2.246;2023-11-19T07:06:39;100444.94;;;11.94;80.59
80333;BME280;69652;51.864;-2.246;2023-11-19T07:09:08;100442.69;;;11.97;80.47
80333;BME280;69652;51.864;-2.246;2023-11-19T07:11:38;100435.97;;;11.94;80.70
80333;BME280;69652;51.864;-2.246;2023-11-19T07:14:04;100440.28;;;11.95;81.17
80333;BME280;69652;51.864;-2.246;2023-11-19T07:16:30;100432.13;;;11.95;81.08
80333;BME280;69652;51.864;-2.246;2023-11-19T07:18:56;100429.72;;;11.93;82.05
80333;BME280;69652;51.864;-2.246;2023-11-19T07:21:21;100422.84;;;11.96;80.81
80333;BME280;69652;51.864;-2.246;2023-11-19T07:23:47;100431.50;;;11.89;81.23
80333;BME280;69652;51.864;-2.246;2023-11-19T07:26:12;100438.69;;;11.94;79.83
80333;BME280;69652;51.864;-2.246;2023-11-19T07:28:38;100455.81;;;11.94;79.58
80333;BME280;69652;51.864;-2.246;2023-11-19T07:31:05;100451.66;;;11.97;80.30
80333;BME280;69652;51.864;-2.246;2023-11-19T07:33:33;100452.13;;;11.90;80.00
80333;BME280;69652;51.864;-2.246;2023-11-19T07:35:58;100455.66;;;11.91;79.56
80333;BME280;69652;51.864;-2.246;2023-11-19T07:38:24;100453.75;;;11.91;79.54
80333;BME280;69652;51.864;-2.246;2023-11-19T07:40:49;100458.03;;;11.92;78.93
80333;BME280;69652;51.864;-2.246;2023-11-19T07:43:15;100464.28;;;11.93;79.44
80333;BME280;69652;51.864;-2.246;2023-11-19T07:45:41;100452.47;;;11.89;79.99
80333;BME280;69652;51.864;-2.246;2023-11-19T07:48:09;100456.28;;;11.88;80.95
80333;BME280;69652;51.864;-2.246;2023-11-19T07:50:34;100449.06;;;11.83;81.27
80333;BME280;69652;51.864;-2.246;2023-11-19T07:53:00;100448.13;;;11.88;81.32
80333;BME280;69652;51.864;-2.246;2023-11-19T07:55:25;100448.28;;;11.83;82.29
80333;BME280;69652;51.864;-2.246;2023-11-19T07:57:52;100453.56;;;11.88;81.61
80333;BME280;69652;51.864;-2.246;2023-11-19T08:00:18;100448.31;;;11.91;81.66
80333;BME280;69652;51.864;-2.246;2023-11-19T08:02:45;100447.81;;;11.98;81.10
80333;BME280;69652;51.864;-2.246;2023-11-19T08:05:10;100445.88;;;12.07;80.31
80333;BME280;69652;51.864;-2.246;2023-11-19T08:07:37;100455.03;;;12.11;80.01
80333;BME280;69652;51.864;-2.246;2023-11-19T08:10:05;100436.16;;;12.15;80.60
80333;BME280;69652;51.864;-2.246;2023-11-19T08:12:35;100439.19;;;12.13;80.72
80333;BME280;69652;51.864;-2.246;2023-11-19T08:15:04;100442.69;;;12.22;80.34
80333;BME280;69652;51.864;-2.246;2023-11-19T08:17:30;100416.59;;;12.21;79.67
80333;BME280;69652;51.864;-2.246;2023-11-19T08:19:55;100435.50;;;12.26;80.77
80333;BME280;69652;51.864;-2.246;2023-11-19T08:22:21;100437.56;;;12.29;80.47
80333;BME280;69652;51.864;-2.246;2023-11-19T08:24:48;100437.06;;;12.27;79.85
80333;BME280;69652;51.864;-2.246;2023-11-19T08:27:13;100434.53;;;12.31;80.87
80333;BME280;69652;51.864;-2.246;2023-11-19T08:29:39;100432.44;;;12.37;80.61
80333;BME280;69652;51.864;-2.246;2023-11-19T08:32:06;100434.84;;;12.29;80.19
80333;BME280;69652;51.864;-2.246;2023-11-19T08:34:32;100442.84;;;12.35;80.53
80333;BME280;69652;51.864;-2.246;2023-11-19T08:36:57;100440.78;;;12.32;80.71
80333;BME280;69652;51.864;-2.246;2023-11-19T08:39:23;100434.53;;;12.31;80.65
80333;BME280;69652;51.864;-2.246;2023-11-19T08:41:49;100434.84;;;12.38;80.87
80333;BME280;69652;51.864;-2.246;2023-11-19T08:44:15;100437.56;;;12.21;83.46
80333;BME280;69652;51.864;-2.246;2023-11-19T08:46:50;100434.06;;;12.20;84.04
80333;BME280;69652;51.864;-2.246;2023-11-19T08:49:16;100420.47;;;12.12;83.63
80333;BME280;69652;51.864;-2.246;2023-11-19T08:51:41;100429.56;;;12.07;84.40
80333;BME280;69652;51.864;-2.246;2023-11-19T08:54:07;100421.59;;;12.02;85.64
80333;BME280;69652;51.864;-2.246;2023-11-19T08:56:32;100432.28;;;11.99;86.45
80333;BME280;69652;51.864;-2.246;2023-11-19T08:58:59;100444.59;;;11.96;86.21
80333;BME280;69652;51.864;-2.246;2023-11-19T09:01:25;100433.91;;;12.00;86.73
80333;BME280;69652;51.864;-2.246;2023-11-19T09:03:51;100437.41;;;12.00;86.22
80333;BME280;69652;51.864;-2.246;2023-11-19T09:06:17;100431.97;;;12.00;87.65
80333;BME280;69652;51.864;-2.246;2023-11-19T09:08:43;100447.00;;;11.89;87.52
80333;BME280;69652;51.864;-2.246;2023-11-19T09:11:08;100435.78;;;11.82;87.89
80333;BME280;69652;51.864;-2.246;2023-11-19T09:13:35;100439.66;;;11.89;88.33
80333;BME280;69652;51.864;-2.246;2023-11-19T09:16:01;100436.94;;;11.89;87.76
80333;BME280;69652;51.864;-2.246;2023-11-19T09:18:30;100429.59;;;11.90;88.14
80333;BME280;69652;51.864;-2.246;2023-11-19T09:20:57;100419.16;;;11.92;87.91
80333;BME280;69652;51.864;-2.246;2023-11-19T09:23:22;100410.84;;;11.97;87.11
80333;BME280;69652;51.864;-2.246;2023-11-19T09:25:47;100420.13;;;12.05;86.33
80333;BME280;69652;51.864;-2.246;2023-11-19T09:28:13;100425.41;;;12.10;86.01
80333;BME280;69652;51.864;-2.246;2023-11-19T09:30:39;100424.13;;;12.16;85.62
80333;BME280;69652;51.864;-2.246;2023-11-19T09:33:05;100418.34;;;12.17;84.68
80333;BME280;69652;51.864;-2.246;2023-11-19T09:35:31;100411.81;;;12.18;85.41
80333;BME280;69652;51.864;-2.246;2023-11-19T09:37:56;100421.59;;;12.02;86.14
80333;BME280;69652;51.864;-2.246;2023-11-19T09:40:22;100413.44;;;12.02;87.63
80333;BME280;69652;51.864;-2.246;2023-11-19T09:42:48;100409.72;;;12.07;86.23
80333;BME280;69652;51.864;-2.246;2023-11-19T09:45:15;100413.72;;;12.09;86.96
80333;BME280;69652;51.864;-2.246;2023-11-19T09:47:45;100423.00;;;12.08;87.33
80333;BME280;69652;51.864;-2.246;2023-11-19T09:50:18;100414.69;;;12.05;86.37
80333;BME280;69652;51.864;-2.246;2023-11-19T09:52:45;100417.56;;;12.08;87.20
80333;BME280;69652;51.864;-2.246;2023-11-19T09:55:10;100414.53;;;12.10;86.66
80333;BME280;69652;51.864;-2.246;2023-11-19T09:57:39;100419.19;;;12.09;87.04
80333;BME280;69652;51.864;-2.246;2023-11-19T10:00:07;100425.41;;;12.10;88.17
80333;BME280;69652;51.864;-2.246;2023-11-19T10:02:33;100430.22;;;12.13;88.12
80333;BME280;69652;51.864;-2.246;2023-11-19T10:05:05;100430.38;;;11.99;88.59
80333;BME280;69652;51.864;-2.246;2023-11-19T10:07:32;100447.81;;;12.07;88.54
80333;BME280;69652;51.864;-2.246;2023-11-19T10:10:01;100443.19;;;11.99;89.72
80333;BME280;69652;51.864;-2.246;2023-11-19T10:12:29;100445.59;;;12.00;89.27
80333;BME280;69652;51.864;-2.246;2023-11-19T10:14:59;100425.25;;;12.06;89.06
80333;BME280;69652;51.864;-2.246;2023-11-19T10:17:28;100425.72;;;12.08;90.00
80333;BME280;69652;51.864;-2.246;2023-11-19T10:19:55;100419.31;;;12.21;89.05
80333;BME280;69652;51.864;-2.246;2023-11-19T10:22:23;100420.75;;;12.27;88.73
80333;BME280;69652;51.864;-2.246;2023-11-19T10:24:48;100416.75;;;12.34;87.98
80333;BME280;69652;51.864;-2.246;2023-11-19T10:27:14;100408.72;;;12.54;86.47
80333;BME280;69652;51.864;-2.246;2023-11-19T10:29:40;100415.44;;;12.57;85.97
80333;BME280;69652;51.864;-2.246;2023-11-19T10:32:05;100399.38;;;12.64;85.45
80333;BME280;69652;51.864;-2.246;2023-11-19T10:34:31;100404.84;;;12.64;85.97
80333;BME280;69652;51.864;-2.246;2023-11-19T10:36:56;100419.69;;;12.75;85.56
80333;BME280;69652;51.864;-2.246;2023-11-19T10:39:22;100409.84;;;12.53;86.86
80333;BME280;69652;51.864;-2.246;2023-11-19T10:41:49;100396.22;;;12.62;86.02
80333;BME280;69652;51.864;-2.246;2023-11-19T10:44:33;100399.75;;;12.62;86.20
80333;BME280;69652;51.864;-2.246;2023-11-19T10:47:01;100399.06;;;12.65;85.48
80333;BME280;69652;51.864;-2.246;2023-11-19T10:49:26;100395.41;;;12.61;85.83
80333;BME280;69652;51.864;-2.246;2023-11-19T10:51:53;100406.75;;;12.63;85.74
80333;BME280;69652;51.864;-2.246;2023-11-19T10:54:22;100411.41;;;12.72;84.95
80333;BME280;69652;51.864;-2.246;2023-11-19T10:56:55;100412.50;;;12.79;85.77
80333;BME280;69652;51.864;-2.246;2023-11-19T10:59:21;100409.44;;;12.81;85.08
80333;BME280;69652;51.864;-2.246;2023-11-19T11:01:48;100400.44;;;12.89;85.96
80333;BME280;69652;51.864;-2.246;2023-11-19T11:04:20;100399.31;;;12.90;85.29
80333;BME280;69652;51.864;-2.246;2023-11-19T11:06:48;100392.41;;;12.92;84.96
80333;BME280;69652;51.864;-2.246;2023-11-19T11:09:14;100407.13;;;13.00;84.40
80333;BME280;69652;51.864;-2.246;2023-11-19T11:11:40;100395.09;;;13.01;84.80
80333;BME280;69652;51.864;-2.246;2023-11-19T11:14:14;100406.50;;;12.94;83.86
80333;BME280;69652;51.864;-2.246;2023-11-19T11:16:42;100395.34;;;12.79;85.24
80333;BME280;69652;51.864;-2.246;2023-11-19T11:19:12;100417.47;;;12.77;85.63
80333;BME280;69652;51.864;-2.246;2023-11-19T11:21:41;100406.25;;;12.79;84.28
80333;BME280;69652;51.864;-2.246;2023-11-19T11:24:29;100396.16;;;12.79;84.39
80333;BME280;69652;51.864;-2.246;2023-11-19T11:32:44;100394.22;;;12.80;85.10
80333;BME280;69652;51.864;-2.246;2023-11-19T11:35:30;100380.13;;;12.78;84.49
80333;BME280;69652;51.864;-2.246;2023-11-19T11:38:05;100386.69;;;12.85;84.63
80333;BME280;69652;51.864;-2.246;2023-11-19T11:40:32;100393.72;;;12.86;84.18
80333;BME280;69652;51.864;-2.246;2023-11-19T11:42:57;100383.00;;;12.81;84.43
80333;BME280;69652;51.864;-2.246;2023-11-19T11:45:39;100377.97;;;12.62;85.99
80333;BME280;69652;51.864;-2.246;2023-11-19T11:48:17;100390.22;;;12.77;86.36
80333;BME280;69652;51.864;-2.246;2023-11-19T11:50:56;100374.72;;;12.69;86.80
80333;BME280;69652;51.864;-2.246;2023-11-19T11:53:23;100398.88;;;12.79;86.63
80333;BME280;69652;51.864;-2.246;2023-11-19T11:58:21;100391.34;;;12.85;86.23
80333;BME280;69652;51.864;-2.246;2023-11-19T12:00:51;100376.25;;;12.87;87.04
80333;BME280;69652;51.864;-2.246;2023-11-19T12:03:20;100377.09;;;12.79;86.49
80333;BME280;69652;51.864;-2.246;2023-11-19T12:05:47;100377.38;;;12.86;86.27
80333;BME280;69652;51.864;-2.246;2023-11-19T12:08:14;100378.41;;;12.73;88.06
80333;BME280;69652;51.864;-2.246;2023-11-19T12:10:50;100360.94;;;12.74;87.82
80333;BME280;69652;51.864;-2.246;2023-11-19T12:13:17;100368.13;;;12.79;87.44
80333;BME280;69652;51.864;-2.246;2023-11-19T12:18:29;100370.44;;;12.59;89.27
80333;BME280;69652;51.864;-2.246;2023-11-19T12:20:55;100371.84;;;12.65;88.92
80333;BME280;69652;51.864;-2.246;2023-11-19T12:23:24;100379.81;;;12.79;89.40
80333;BME280;69652;51.864;-2.246;2023-11-19T12:25:50;100375.78;;;12.85;88.25
80333;BME280;69652;51.864;-2.246;2023-11-19T12:28:15;100370.91;;;12.99;87.52
80333;BME280;69652;51.864;-2.246;2023-11-19T12:30:44;100362.72;;;13.08;86.93
80333;BME280;69652;51.864;-2.246;2023-11-19T12:33:11;100373.94;;;13.07;88.01
80333;BME280;69652;51.864;-2.246;2023-11-19T12:35:44;100360.28;;;13.15;87.74
80333;BME280;69652;51.864;-2.246;2023-11-19T12:38:20;100359.91;;;13.25;86.86
80333;BME280;69652;51.864;-2.246;2023-11-19T12:40:46;100362.16;;;14.06;84.02
80333;BME280;69652;51.864;-2.246;2023-11-19T12:43:21;100350.50;;;13.64;84.28
80333;BME280;69652;51.864;-2.246;2023-11-19T12:45:47;100357.56;;;13.45;85.71
80333;BME280;69652;51.864;-2.246;2023-11-19T12:48:13;100349.94;;;13.29;85.64
80333;BME280;69652;51.864;-2.246;2023-11-19T12:50:52;100352.34;;;13.31;85.72